createdAt,value
2022-08-17T00:02:26.275Z,24.70
2022-08-17T00:04:54.248Z,24.91
2022-08-17T00:07:20.899Z,24.76
2022-08-17T00:09:47.692Z,24.77
2022-08-17T00:12:43.135Z,24.72
2022-08-17T00:15:01.358Z,24.96
2022-08-17T00:17:28.010Z,25.00
2022-08-17T00:19:54.703Z,24.50
2022-08-17T00:22:35.241Z,24.56
2022-08-17T00:25:09.103Z,23.91
2022-08-17T00:27:37.002Z,24.21
2022-08-17T00:30:06.790Z,24.50
2022-08-17T00:33:14.625Z,24.46
2022-08-17T00:35:41.855Z,24.40
2022-08-17T00:38:10.020Z,24.58
2022-08-17T00:40:59.004Z,24.07
2022-08-17T00:43:32.803Z,24.31
2022-08-17T00:46:03.075Z,24.41
2022-08-17T00:48:30.984Z,24.63
2022-08-17T00:51:15.069Z,24.62
2022-08-17T00:53:51.414Z,24.60
2022-08-17T00:56:28.526Z,24.52
2022-08-17T00:58:55.698Z,24.59
2022-08-17T01:01:23.315Z,24.62
2022-08-17T01:03:53.396Z,24.61
2022-08-17T01:06:24.272Z,24.75
2022-08-17T01:08:57.450Z,24.71
2022-08-17T01:11:25.408Z,24.39
2022-08-17T01:13:52.125Z,24.26
2022-08-17T01:16:30.999Z,24.08
2022-08-17T01:19:01.389Z,24.48
2022-08-17T01:21:39.903Z,24.62
2022-08-17T01:24:07.338Z,24.56
2022-08-17T01:26:35.598Z,24.44
2022-08-17T01:29:04.700Z,24.57
2022-08-17T01:31:45.708Z,24.55
2022-08-17T01:34:14.791Z,24.44
2022-08-17T01:36:44.689Z,24.41
2022-08-17T01:39:31.694Z,24.32
2022-08-17T01:42:13.511Z,24.21
2022-08-17T01:44:41.119Z,23.78
2022-08-17T01:47:07.845Z,23.92
2022-08-17T01:49:34.581Z,23.97
2022-08-17T01:52:08.270Z,23.63
2022-08-17T01:54:37.077Z,24.02
2022-08-17T01:57:04.546Z,23.75
2022-08-17T01:59:31.204Z,23.99
2022-08-17T02:01:58.099Z,23.83
2022-08-17T02:04:24.894Z,23.92
2022-08-17T02:06:53.400Z,23.90
2022-08-17T02:09:25.666Z,24.08
2022-08-17T02:11:56.217Z,24.00
2022-08-17T02:14:24.532Z,23.97
2022-08-17T02:16:51.919Z,23.96
2022-08-17T02:19:19.163Z,24.05
2022-08-17T02:21:49.511Z,23.91
2022-08-17T02:25:00.026Z,23.98
2022-08-17T02:27:08.244Z,24.09
2022-08-17T02:29:35.064Z,24.02
2022-08-17T02:32:01.978Z,23.94
2022-08-17T02:34:30.036Z,24.02
2022-08-17T02:36:56.750Z,23.96
2022-08-17T02:39:23.539Z,23.88
2022-08-17T02:41:50.458Z,23.89
2022-08-17T02:44:39.075Z,23.85
2022-08-17T02:47:04.220Z,23.70
2022-08-17T02:49:31.107Z,23.49
2022-08-17T02:51:58.951Z,23.68
2022-08-17T02:54:39.874Z,23.83
2022-08-17T02:57:09.256Z,23.67
2022-08-17T02:59:35.915Z,23.66
2022-08-17T03:02:11.812Z,23.57
2022-08-17T03:04:38.715Z,23.64
2022-08-17T03:07:06.754Z,23.56
2022-08-17T03:09:33.626Z,23.60
2022-08-17T03:12:20.489Z,23.49
2022-08-17T03:14:47.105Z,23.51
2022-08-17T03:17:17.027Z,23.45
2022-08-17T03:19:44.671Z,23.43
2022-08-17T03:22:34.745Z,23.40
2022-08-17T03:24:58.551Z,23.45
2022-08-17T03:27:25.246Z,23.46
2022-08-17T03:29:51.926Z,23.26
2022-08-17T03:32:20.661Z,23.43
2022-08-17T03:34:47.767Z,23.34
2022-08-17T03:37:14.814Z,23.35
2022-08-17T03:39:41.767Z,23.09
2022-08-17T03:42:32.448Z,23.15
2022-08-17T03:45:00.841Z,23.10
2022-08-17T03:47:46.233Z,23.08
2022-08-17T03:50:32.556Z,23.22
2022-08-17T03:53:17.571Z,23.37
2022-08-17T03:56:03.034Z,23.25
2022-08-17T03:58:29.730Z,23.28
2022-08-17T04:00:56.407Z,23.39
2022-08-17T04:03:23.047Z,23.43
2022-08-17T04:05:49.719Z,23.45
2022-08-17T04:08:16.358Z,23.45
2022-08-17T04:10:45.238Z,23.33
2022-08-17T04:13:12.674Z,23.14
2022-08-17T04:15:39.523Z,22.98
2022-08-17T04:18:07.524Z,23.03
2022-08-17T04:20:34.798Z,23.16
2022-08-17T04:23:11.313Z,23.23
2022-08-17T04:25:42.183Z,23.33
2022-08-17T04:28:16.294Z,23.03
2022-08-17T04:30:45.794Z,23.17
2022-08-17T04:33:21.877Z,23.17
2022-08-17T04:35:51.644Z,23.31
2022-08-17T04:38:22.206Z,23.08
2022-08-17T04:41:07.846Z,22.99
2022-08-17T04:43:35.862Z,23.05
2022-08-17T04:46:05.625Z,23.25
2022-08-17T04:48:37.882Z,23.33
2022-08-17T04:51:13.861Z,23.52
2022-08-17T04:53:44.063Z,23.17
2022-08-17T04:56:16.750Z,23.11
2022-08-17T04:58:47.895Z,23.03
2022-08-17T05:01:23.245Z,22.90
2022-08-17T05:03:56.243Z,22.35
2022-08-17T05:06:23.783Z,22.72
2022-08-17T05:08:50.491Z,22.85
2022-08-17T05:11:17.466Z,22.91
2022-08-17T05:13:44.820Z,23.16
2022-08-17T05:16:12.242Z,23.20
2022-08-17T05:18:39.179Z,23.17
2022-08-17T05:21:07.082Z,23.47
2022-08-17T05:23:41.866Z,23.58
2022-08-17T05:26:26.270Z,23.18
2022-08-17T05:28:57.016Z,23.21
2022-08-17T05:31:25.233Z,23.21
2022-08-17T05:33:52.728Z,23.41
2022-08-17T05:36:42.079Z,23.52
2022-08-17T05:39:06.640Z,23.62
2022-08-17T05:41:33.295Z,23.24
2022-08-17T05:43:59.903Z,23.89
2022-08-17T05:46:37.441Z,23.94
2022-08-17T05:49:08.092Z,23.93
2022-08-17T05:51:56.561Z,23.88
2022-08-17T05:55:01.311Z,24.12
2022-08-17T05:57:43.641Z,24.15
2022-08-17T06:00:42.073Z,24.44
2022-08-17T06:03:24.073Z,24.28
2022-08-17T06:06:15.141Z,24.83
2022-08-17T06:09:05.279Z,24.62
2022-08-17T06:11:58.766Z,24.55
2022-08-17T06:14:43.548Z,24.93
2022-08-17T06:17:16.771Z,24.47
2022-08-17T06:19:52.910Z,25.17
2022-08-17T06:22:23.482Z,25.31
2022-08-17T06:25:13.743Z,25.07
2022-08-17T06:27:41.384Z,24.59
2022-08-17T06:30:41.411Z,24.28
2022-08-17T06:33:36.794Z,24.84
2022-08-17T06:36:15.932Z,25.00
2022-08-17T06:38:58.788Z,24.91
2022-08-17T06:41:44.760Z,25.11
2022-08-17T06:44:43.682Z,25.25
2022-08-17T06:47:28.167Z,25.26
2022-08-17T06:50:15.760Z,25.49
2022-08-17T06:52:53.968Z,25.52
2022-08-17T06:55:38.299Z,25.57
2022-08-17T06:58:16.245Z,25.84
2022-08-17T07:00:47.274Z,25.77
2022-08-17T07:03:29.091Z,25.92
2022-08-17T07:06:05.710Z,26.15
2022-08-17T07:09:01.936Z,26.44
2022-08-17T07:11:42.043Z,26.43
2022-08-17T07:14:31.769Z,26.38
2022-08-17T07:17:03.040Z,26.76
2022-08-17T07:19:33.187Z,26.76
2022-08-17T07:22:15.589Z,26.89
2022-08-17T07:24:53.173Z,27.08
2022-08-17T07:27:21.372Z,27.06
2022-08-17T07:29:57.078Z,27.06
2022-08-17T07:32:31.828Z,26.39
2022-08-17T07:35:23.102Z,26.53
2022-08-17T07:38:24.388Z,27.17
2022-08-17T07:41:13.947Z,27.36
2022-08-17T07:43:40.598Z,27.31
2022-08-17T07:46:54.835Z,27.36
2022-08-17T07:49:35.431Z,27.09
2022-08-17T07:52:47.416Z,27.13
2022-08-17T07:54:59.428Z,26.87
2022-08-17T07:57:36.192Z,27.39
2022-08-17T08:00:03.175Z,27.44
2022-08-17T08:02:40.312Z,27.09
2022-08-17T08:05:13.967Z,27.19
2022-08-17T08:08:28.275Z,27.41
2022-08-17T08:11:02.173Z,26.85
2022-08-17T08:13:30.316Z,26.75
2022-08-17T08:16:17.517Z,26.77
2022-08-17T08:18:55.517Z,27.23
2022-08-17T08:21:41.898Z,27.35
2022-08-17T08:24:42.897Z,26.90
2022-08-17T08:27:18.245Z,27.23
2022-08-17T08:30:04.998Z,27.67
2022-08-17T08:33:09.269Z,27.79
2022-08-17T08:35:56.638Z,26.88
2022-08-17T08:38:53.692Z,27.51
2022-08-17T08:41:25.543Z,27.44
2022-08-17T08:43:55.127Z,28.23
2022-08-17T08:46:40.695Z,27.66
2022-08-17T08:49:59.553Z,27.62
2022-08-17T08:52:40.518Z,27.59
2022-08-17T08:55:07.834Z,27.54
2022-08-17T08:57:40.697Z,28.09
2022-08-17T09:00:25.882Z,27.64
2022-08-17T09:03:36.713Z,27.98
2022-08-17T09:06:58.026Z,27.47
2022-08-17T09:09:43.269Z,27.68
2022-08-17T09:12:21.362Z,27.86
2022-08-17T09:15:13.221Z,27.78
2022-08-17T09:19:02.816Z,27.78
2022-08-17T09:21:07.728Z,27.67
2022-08-17T09:24:12.703Z,28.07
2022-08-17T09:26:54.768Z,28.78
2022-08-17T09:29:25.569Z,28.87
2022-08-17T09:32:04.010Z,28.31
2022-08-17T09:34:38.738Z,28.35
2022-08-17T09:37:19.298Z,28.49
2022-08-17T09:39:55.685Z,28.08
2022-08-17T09:42:49.863Z,28.23
2022-08-17T09:45:30.268Z,27.84
2022-08-17T09:48:20.789Z,28.23
2022-08-17T09:51:04.818Z,27.79
2022-08-17T09:53:35.904Z,28.36
2022-08-17T09:56:08.902Z,28.52
2022-08-17T09:58:50.931Z,28.82
2022-08-17T10:01:39.887Z,28.83
2022-08-17T10:04:20.103Z,28.88
2022-08-17T10:06:58.883Z,28.86
2022-08-17T10:09:33.278Z,28.27
2022-08-17T10:12:17.678Z,28.18
2022-08-17T10:15:09.485Z,28.35
2022-08-17T10:17:59.392Z,28.15
2022-08-17T10:20:46.612Z,28.52
2022-08-17T10:23:46.813Z,29.14
2022-08-17T10:26:24.004Z,28.97
2022-08-17T10:29:00.759Z,29.42
2022-08-17T10:31:38.417Z,29.66
2022-08-17T10:34:23.567Z,29.44
2022-08-17T10:37:11.170Z,28.50
2022-08-17T10:39:52.214Z,28.57
2022-08-17T10:42:32.935Z,28.73
2022-08-17T10:45:26.835Z,28.98
2022-08-17T10:48:05.033Z,28.62
2022-08-17T10:50:49.652Z,28.76
2022-08-17T10:53:50.637Z,29.19
2022-08-17T10:56:21.355Z,28.90
2022-08-17T10:58:54.068Z,28.79
2022-08-17T11:01:44.492Z,28.84
2022-08-17T11:04:17.649Z,29.14
2022-08-17T11:07:05.751Z,29.29
2022-08-17T11:09:55.153Z,29.20
2022-08-17T11:12:33.885Z,29.33
2022-08-17T11:15:41.887Z,29.26
2022-08-17T11:18:33.028Z,28.98
2022-08-17T11:21:23.255Z,29.19
2022-08-17T11:24:14.844Z,29.95
2022-08-17T11:26:48.869Z,30.13
2022-08-17T11:29:35.496Z,30.21
2022-08-17T11:32:13.526Z,29.66
2022-08-17T11:34:44.581Z,29.49
2022-08-17T11:37:29.695Z,30.30
2022-08-17T11:40:33.645Z,29.97
2022-08-17T11:43:07.972Z,29.62
2022-08-17T11:45:58.365Z,29.77
2022-08-17T11:49:08.220Z,30.14
2022-08-17T11:52:13.823Z,29.78
2022-08-17T11:54:45.368Z,29.69
2022-08-17T11:57:27.066Z,29.61
2022-08-17T12:00:12.711Z,29.11
2022-08-17T12:02:47.908Z,29.72
2022-08-17T12:05:16.932Z,29.43
2022-08-17T12:07:49.295Z,29.50
2022-08-17T12:10:21.535Z,29.39
2022-08-17T12:12:53.353Z,28.84
2022-08-17T12:15:29.317Z,28.68
2022-08-17T12:17:57.483Z,29.29
2022-08-17T12:20:28.032Z,28.84
2022-08-17T12:23:16.505Z,28.98
2022-08-17T12:26:11.454Z,29.17
2022-08-17T12:28:44.267Z,29.17
2022-08-17T12:31:25.930Z,29.45
2022-08-17T12:33:52.974Z,29.02
2022-08-17T12:36:24.881Z,29.05
2022-08-17T12:39:12.815Z,30.08
2022-08-17T12:41:44.567Z,30.15
2022-08-17T12:44:12.299Z,29.98
2022-08-17T12:47:01.848Z,30.20
2022-08-17T12:49:37.476Z,29.94
2022-08-17T12:52:28.596Z,30.08
2022-08-17T12:55:00.197Z,29.32
2022-08-17T12:57:33.859Z,29.26
2022-08-17T13:00:10.264Z,29.10
2022-08-17T13:08:48.410Z,29.06
2022-08-17T13:14:10.086Z,29.13
2022-08-17T13:16:36.863Z,29.53
2022-08-17T13:19:13.063Z,29.61
2022-08-17T13:21:46.168Z,29.81
2022-08-17T13:24:13.923Z,30.22
2022-08-17T13:26:57.800Z,30.36
2022-08-17T13:29:40.143Z,30.86
2022-08-17T13:32:13.074Z,30.21
2022-08-17T13:35:12.013Z,29.87
2022-08-17T13:37:40.668Z,30.79
2022-08-17T13:40:10.076Z,30.55
2022-08-17T13:42:51.821Z,30.36
2022-08-17T13:45:38.846Z,30.47
2022-08-17T13:48:14.511Z,30.53
2022-08-17T13:50:41.216Z,30.13
2022-08-17T13:53:51.238Z,30.16
2022-08-17T13:56:38.250Z,30.14
2022-08-17T13:59:13.074Z,30.07
2022-08-17T14:01:53.533Z,30.31
2022-08-17T14:04:31.703Z,31.00
2022-08-17T14:07:05.473Z,31.25
2022-08-17T14:09:37.335Z,31.41
2022-08-17T14:12:09.690Z,31.32
2022-08-17T14:14:37.118Z,30.73
2022-08-17T14:17:07.887Z,30.75
2022-08-17T14:19:34.941Z,31.02
2022-08-17T14:22:02.209Z,29.88
2022-08-17T14:24:32.163Z,30.25
2022-08-17T14:27:00.504Z,30.46
2022-08-17T14:29:28.994Z,30.70
2022-08-17T14:31:59.380Z,30.23
2022-08-17T14:34:26.040Z,29.94
2022-08-17T14:36:52.781Z,30.46
2022-08-17T14:39:20.161Z,31.09
2022-08-17T14:41:47.256Z,31.03
2022-08-17T14:44:14.005Z,30.59
2022-08-17T14:46:43.060Z,30.88
2022-08-17T14:49:11.880Z,30.99
2022-08-17T14:51:44.320Z,31.02
2022-08-17T14:54:25.599Z,31.28
2022-08-17T14:57:14.816Z,31.39
2022-08-17T14:59:46.281Z,31.14
2022-08-17T15:02:13.557Z,31.42
2022-08-17T15:04:45.342Z,31.24
2022-08-17T15:07:12.407Z,31.64
2022-08-17T15:13:27.615Z,31.61
2022-08-17T15:15:54.681Z,31.62
2022-08-17T15:18:21.603Z,31.53
2022-08-17T15:20:50.131Z,30.36
2022-08-17T15:23:19.700Z,31.24
2022-08-17T15:25:48.659Z,31.39
2022-08-17T15:28:16.100Z,31.67
2022-08-17T15:30:44.823Z,30.81
2022-08-17T15:33:16.760Z,30.95
2022-08-17T15:35:43.836Z,30.48
2022-08-17T15:38:13.447Z,30.50
2022-08-17T15:40:45.342Z,30.68
2022-08-17T15:43:15.974Z,30.61
2022-08-17T15:45:43.121Z,30.48
2022-08-17T15:48:10.104Z,30.68
2022-08-17T15:50:37.464Z,30.80
2022-08-17T15:53:04.948Z,30.53
2022-08-17T15:55:33.338Z,30.19
2022-08-17T15:58:00.460Z,29.40
2022-08-17T16:00:29.245Z,29.98
2022-08-17T16:03:44.388Z,29.60
2022-08-17T16:05:46.694Z,30.13
2022-08-17T16:08:18.476Z,30.42
2022-08-17T16:10:47.539Z,30.64
2022-08-17T16:13:17.141Z,30.84
2022-08-17T16:15:48.675Z,30.71
2022-08-17T16:18:25.610Z,30.42
2022-08-17T16:20:53.321Z,30.36
2022-08-17T16:23:20.321Z,30.09
2022-08-17T16:25:52.748Z,30.21
2022-08-17T16:28:21.901Z,30.02
2022-08-17T16:30:48.605Z,30.08
2022-08-17T16:33:16.737Z,29.98
2022-08-17T16:35:43.389Z,29.48
2022-08-17T16:38:10.940Z,29.58
2022-08-17T16:40:38.131Z,29.59
2022-08-17T16:43:10.537Z,30.01
2022-08-17T16:45:40.857Z,29.89
2022-08-17T16:48:09.253Z,30.04
2022-08-17T16:50:36.913Z,29.98
2022-08-17T16:53:16.232Z,30.10
2022-08-17T16:55:49.663Z,29.92
2022-08-17T16:58:16.381Z,29.90
2022-08-17T17:00:45.121Z,29.98
2022-08-17T17:03:19.792Z,29.38
2022-08-17T17:06:39.984Z,29.68
2022-08-17T17:09:12.702Z,29.72
2022-08-17T17:11:43.613Z,29.63
2022-08-17T17:14:16.869Z,29.72
2022-08-17T17:16:48.820Z,29.70
2022-08-17T17:19:57.638Z,29.59
2022-08-17T17:22:30.179Z,29.19
2022-08-17T17:25:08.437Z,29.46
2022-08-17T17:27:59.848Z,29.43
2022-08-17T17:30:52.442Z,29.25
2022-08-17T17:33:36.104Z,29.07
2022-08-17T17:36:18.875Z,28.98
2022-08-17T17:38:52.918Z,28.96
2022-08-17T17:41:34.364Z,28.98
2022-08-17T17:44:12.313Z,28.69
2022-08-17T17:46:51.574Z,28.77
2022-08-17T17:49:18.850Z,28.98
2022-08-17T17:52:19.284Z,29.07
2022-08-17T17:55:07.559Z,28.41
2022-08-17T17:57:44.853Z,28.57
2022-08-17T18:00:21.846Z,28.71
2022-08-17T18:03:04.595Z,28.08
2022-08-17T18:05:36.866Z,28.69
2022-08-17T18:08:12.108Z,28.59
2022-08-17T18:10:41.589Z,28.56
2022-08-17T18:13:27.317Z,28.52
2022-08-17T18:15:54.462Z,28.69
2022-08-17T18:18:37.773Z,28.52
2022-08-17T18:21:19.554Z,28.60
2022-08-17T18:23:56.956Z,28.62
2022-08-17T18:26:32.887Z,28.57
2022-08-17T18:29:01.387Z,28.47
2022-08-17T18:31:28.012Z,28.47
2022-08-17T18:34:43.427Z,28.28
2022-08-17T18:37:05.079Z,28.25
2022-08-17T18:39:31.767Z,28.33
2022-08-17T18:42:03.612Z,28.16
2022-08-17T18:44:32.711Z,27.75
2022-08-17T18:47:16.720Z,27.54
2022-08-17T18:49:48.962Z,27.75
2022-08-17T18:52:21.538Z,27.65
2022-08-17T18:55:03.417Z,27.67
2022-08-17T18:57:34.932Z,27.79
2022-08-17T19:00:10.191Z,27.95
2022-08-17T19:02:53.532Z,27.86
2022-08-17T19:05:29.406Z,27.87
2022-08-17T19:08:19.274Z,27.96
2022-08-17T19:10:49.098Z,28.16
2022-08-17T19:13:24.576Z,27.97
2022-08-17T19:16:14.586Z,27.66
2022-08-17T19:19:01.854Z,27.73
2022-08-17T19:21:46.878Z,27.74
2022-08-17T19:24:26.473Z,27.92
2022-08-17T19:27:15.855Z,27.86
2022-08-17T19:30:05.370Z,27.58
2022-08-17T19:32:35.802Z,27.71
2022-08-17T19:35:04.528Z,27.76
2022-08-17T19:37:47.306Z,27.61
2022-08-17T19:40:51.817Z,27.64
2022-08-17T19:43:47.999Z,27.32
2022-08-17T19:46:26.025Z,27.57
2022-08-17T19:48:55.637Z,27.42
2022-08-17T19:51:50.666Z,27.26
2022-08-17T19:54:31.029Z,27.11
2022-08-17T19:57:27.409Z,27.03
2022-08-17T20:00:01.041Z,27.14
2022-08-17T20:03:06.171Z,27.16
2022-08-17T20:06:08.575Z,27.27
2022-08-17T20:08:29.744Z,27.25
2022-08-17T20:11:10.357Z,27.12
2022-08-17T20:13:40.845Z,27.08
2022-08-17T20:16:08.007Z,26.91
2022-08-17T20:18:43.957Z,26.86
2022-08-17T20:21:23.967Z,26.87
2022-08-17T20:24:02.139Z,26.74
2022-08-17T20:26:58.967Z,26.88
2022-08-17T20:29:40.219Z,27.09
2022-08-17T20:32:18.902Z,27.09
2022-08-17T20:34:47.290Z,27.05
2022-08-17T20:37:14.270Z,27.01
2022-08-17T20:39:45.035Z,27.09
2022-08-17T20:42:20.685Z,27.08
2022-08-17T20:44:53.970Z,27.11
2022-08-17T20:47:34.216Z,26.79
2022-08-17T20:50:00.836Z,26.80
2022-08-17T20:52:45.613Z,26.75
2022-08-17T20:55:34.110Z,26.73
2022-08-17T20:58:30.891Z,26.87
2022-08-17T21:00:57.692Z,26.86
2022-08-17T21:03:25.049Z,26.90
2022-08-17T21:06:17.104Z,26.89
2022-08-17T21:08:57.743Z,26.72
2022-08-17T21:11:56.975Z,26.82
2022-08-17T21:14:36.730Z,27.03
2022-08-17T21:17:29.742Z,26.76
2022-08-17T21:20:32.604Z,26.82
2022-08-17T21:23:11.261Z,26.79
2022-08-17T21:25:51.929Z,26.80
2022-08-17T21:28:21.371Z,26.70
2022-08-17T21:30:56.738Z,26.52
2022-08-17T21:33:25.328Z,26.70
2022-08-17T21:36:16.830Z,26.21
2022-08-17T21:38:53.399Z,26.31
2022-08-17T21:41:28.113Z,26.36
2022-08-17T21:44:05.567Z,26.17
2022-08-17T21:46:37.659Z,26.03
2022-08-17T21:49:13.914Z,26.16
2022-08-17T21:51:50.023Z,26.31
2022-08-17T21:54:41.770Z,26.12
2022-08-17T21:57:17.589Z,26.31
2022-08-17T21:59:44.662Z,26.19
2022-08-17T22:02:51.408Z,26.30
2022-08-17T22:05:29.987Z,26.09
2022-08-17T22:08:02.611Z,26.27
2022-08-17T22:10:37.754Z,26.33
2022-08-17T22:13:16.538Z,26.24
2022-08-17T22:15:49.699Z,26.06
2022-08-17T22:18:27.303Z,25.96
2022-08-17T22:20:57.020Z,26.05
2022-08-17T22:23:42.157Z,26.16
2022-08-17T22:26:12.766Z,26.13
2022-08-17T22:28:50.439Z,26.09
2022-08-17T22:31:28.810Z,26.37
2022-08-17T22:33:59.859Z,26.06
2022-08-17T22:36:34.514Z,26.05
2022-08-17T22:39:07.500Z,26.01
2022-08-17T22:41:54.384Z,25.90
2022-08-17T22:44:26.336Z,25.93
2022-08-17T22:47:11.270Z,26.06
2022-08-17T22:49:54.132Z,25.56
2022-08-17T22:53:00.536Z,25.81
2022-08-17T22:55:48.310Z,25.98
2022-08-17T22:58:42.866Z,25.82
2022-08-17T23:01:32.514Z,25.69
2022-08-17T23:04:02.557Z,26.08
2022-08-17T23:06:29.782Z,26.05
2022-08-17T23:08:57.731Z,25.89
2022-08-17T23:11:36.955Z,25.53
2022-08-17T23:14:15.757Z,25.24
2022-08-17T23:16:42.714Z,25.39
2022-08-17T23:19:15.637Z,25.49
2022-08-17T23:21:46.232Z,25.66
2022-08-17T23:24:22.880Z,25.14
2022-08-17T23:26:49.710Z,25.58
2022-08-17T23:29:16.686Z,25.58
2022-08-17T23:31:43.485Z,25.55
2022-08-17T23:34:13.270Z,25.82
2022-08-17T23:36:39.934Z,25.68
2022-08-17T23:39:07.463Z,25.67
2022-08-17T23:41:38.610Z,25.64
2022-08-17T23:44:06.470Z,25.58
2022-08-17T23:46:34.558Z,25.73
2022-08-17T23:49:01.439Z,25.68
2022-08-17T23:51:31.811Z,25.79
2022-08-17T23:54:08.187Z,25.70
2022-08-17T23:56:38.507Z,25.47
2022-08-17T23:59:05.631Z,25.35
